1995 Tropical Cyclone EMMA (1995337S13103)


IBTrACS version v04r00. Visit IBTrACS website for data access.
Please direct all questions to the IBTrACS Q and A forum

Storm track - Intensity - Wind Radii - Intensity Data - Source Data - All data

Summary Information

Satellite image near maximum intensity
Storm ID 1995337S13103
Start Dec 2 18Z
Max Intensity 40 kt (Dec 4 19Z), 990 mb (Dec 4 19Z)
End Dec 16 16Z
ATCF IDs ,SH021996
Track status Best track data.

Storm track plot

Map of storm track

Intensity plots

Map of storm track

Radial wind information

Map of storm track

Position and Intensity Table

BASIN ISO_TIME_________ NATURE LAT LON WMO WIND WMO PRES USA WIND BOM WIND BOM PRES NEUMANN WIND
degrees north degrees east kts mb kts kts mb kts
SI 1995-12-02 18:00:00 TS -13.40 102.50 15
SI 19:00:00 TS -13.46 102.34 20 1005 15
SI 21:00:00 TS -13.58 102.03 15
SI 22:00:00 TS -13.63 101.88 20 1005 15
SI 1995-12-03 00:00:00 TS -13.70 101.60 15 15
SI 01:00:00 TS -13.71 101.47 20 1003 15 15
SI 03:00:00 TS -13.72 101.23 15 15
SI 04:00:00 TS -13.71 101.12 20 1003 15 15
SI 06:00:00 TS -13.70 100.90 15 15
SI 07:00:00 TS -13.69 100.80 20 1003 15 15
SI 09:00:00 TS -13.67 100.61 15 15
SI 10:00:00 TS -13.65 100.51 20 1003 15 15
SI 12:00:00 TS -13.41 100.34 15 15
SI 13:00:00 TS -13.24 100.24 20 1003 15 20 1003 15
SI 15:00:00 TS -13.04 99.99 15 23 1001 15
SI 16:00:00 TS -12.89 99.86 25 1000 15 25 1000 15
SI 18:00:00 TS -12.78 99.56 15 28 1000 15
SI 19:00:00 TS -12.71 99.41 30 1000 15 30 1000 15
SI 21:00:00 TS -12.56 99.10 17 26 1000 17
SI 22:00:00 TS -12.48 98.94 25 1000 18 25 1000 18
SI 1995-12-04 00:00:00 TS -12.31 98.62 20 25 1000 20
SI 01:00:00 TS -12.23 98.46 25 1000 20 25 1000 20
SI 03:00:00 TS -12.07 98.12 22 28 998 22
SI 04:00:00 TS -11.99 97.96 30 998 23 30 998 23
SI 06:00:00 TS -11.85 97.64 25 30 998 25
SI 07:00:00 TS -11.78 97.49 30 998 25 30 998 25
SI 09:00:00 TS -11.62 97.17 27 30 998 27
SI 10:00:00 TS -11.55 97.02 30 998 28 30 998 28
SI 12:00:00 TS -11.39 96.71 30 33 996 30
SI 13:00:00 TS -11.30 96.55 35 995 30 35 995 30
SI 15:00:00 TS -11.10 96.27 30 35 995 30
SI 16:00:00 TS -11.00 96.14 35 995 30 35 995 30
SI 18:00:00 TS -10.80 95.90 30 38 991 30
SI 19:00:00 TS -10.71 95.80 40 990 30 40 990 30
SI 21:00:00 TS -10.52 95.63 30 40 990 30
SI 22:00:00 TS -10.44 95.56 40 990 30 40 990 30
SI 1995-12-05 00:00:00 TS -10.29 95.43 30 36 993 30
SI 01:00:00 TS -10.22 95.37 35 995 30 35 995 30
SI 03:00:00 TS -10.08 95.26 30 35 995 30
SI 04:00:00 TS -10.02 95.21 35 995 30 35 995 30
SI 06:00:00 TS -9.89 95.10 30 35 995 30
SI 07:00:00 TS -9.82 95.04 35 995 30 35 995 30
SI 09:00:00 TS -9.69 94.90 30 35 995 30
SI 10:00:00 TS -9.64 94.84 35 995 30 35 995 30
SI 12:00:00 TS -9.59 94.72 30 35 995 30
SI 13:00:00 TS -9.58 94.67 35 995 30 35 995 30
SI 15:00:00 TS -9.57 94.56 30 35 995 30
SI 16:00:00 TS -9.57 94.51 35 995 30 35 995 30
SI 18:00:00 TS -9.59 94.39 30 31 996 30
SI 19:00:00 TS -9.59 94.33 30 997 30 30 997 30
SI 21:00:00 TS -9.60 94.21 30 30 997 30
SI 22:00:00 TS -9.61 94.16 30 997 30 30 997 30
SI 1995-12-06 00:00:00 TS -9.66 94.05 30 30 997 30
SI 01:00:00 TS -9.69 93.99 30 997 29 30 997 29
SI 03:00:00 TS -9.77 93.86 27 30 997 27
SI 04:00:00 TS -9.82 93.79 30 997 26 30 997 26
SI 06:00:00 TS -9.96 93.66 25 30 997 25
SI 07:00:00 TS -10.04 93.59 30 997 25 30 997 25
SI 09:00:00 TS -10.18 93.46 25 30 997 25
SI 10:00:00 TS -10.24 93.39 30 997 25 30 997 25
SI 12:00:00 TS -10.33 93.26 25 30 997 25
SI 13:00:00 TS -10.35 93.19 30 997 25 30 997 25
SI 15:00:00 TS -10.40 93.05 25 30 997 25
SI 16:00:00 TS -10.42 92.98 30 997 25 30 997 25
SI 18:00:00 TS -10.44 92.86 25 30 997 25
SI 19:00:00 TS -10.45 92.80 30 997 25 30 997 25
SI 21:00:00 TS -10.47 92.71 25 30 997 25
SI 22:00:00 TS -10.48 92.67 30 997 25 30 997 25
SI 1995-12-07 00:00:00 TS -10.50 92.57 25 30 997 25
SI 01:00:00 TS -10.50 92.51 30 997 25 30 997 25
SI 03:00:00 TS -10.50 92.40 25 30 997 25
SI 04:00:00 TS -10.50 92.34 30 997 25 30 997 25
SI 06:00:00 TS -10.52 92.23 25 30 997 25
SI 07:00:00 TS -10.54 92.18 30 997 25 30 997 25
SI 09:00:00 TS -10.57 92.06 25 30 997 25
SI 10:00:00 TS -10.57 92.01 30 997 25 30 997 25
SI 12:00:00 TS -10.55 91.92 25 30 997 25
SI 13:00:00 TS -10.53 91.88 30 997 25 30 997 25
SI 15:00:00 TS -10.49 91.83 25 30 997 25
SI 16:00:00 TS -10.46 91.81 30 997 25 30 997 25
SI 18:00:00 TS -10.41 91.79 25 30 997 25
SI 19:00:00 TS -10.38 91.78 30 997 25 30 997 25
SI 21:00:00 TS -10.32 91.75 25 30 997 25
SI 22:00:00 TS -10.28 91.74 30 997 25 30 997 25
SI 1995-12-08 00:00:00 TS -10.19 91.72 25 30 997 25
SI 01:00:00 TS -10.15 91.71 30 997 25 30 997 25
SI 03:00:00 TS -10.04 91.70 27 30 997 27
SI 04:00:00 TS -9.98 91.70 30 997 28 30 997 28
SI 06:00:00 TS -9.86 91.74 30 30 997 30
SI 07:00:00 TS -9.80 91.77 30 997 30 30 997 30
SI 09:00:00 TS -9.68 91.85 32 30 997 32
SI 10:00:00 TS -9.63 91.90 30 997 33 30 997 33
SI 12:00:00 TS -9.54 92.03 35 30 997 35
SI 13:00:00 TS -9.51 92.10 30 997 35 30 997 35
SI 15:00:00 TS -9.43 92.25 37 30 997 37
SI 16:00:00 TS -9.40 92.33 30 997 38 30 997 38
SI 18:00:00 TS -9.34 92.50 40 30 997 40
SI 19:00:00 TS -9.32 92.59 30 997 40 30 997 40
SI 21:00:00 TS -9.28 92.78 40 30 997 40
SI 22:00:00 TS -9.26 92.88 30 997 40 30 997 40
SI 1995-12-09 00:00:00 TS -9.23 93.10 40 30 997 40
SI 01:00:00 TS -9.21 93.21 30 997 40 30 997 40
SI 03:00:00 TS -9.19 93.45 40 30 997 40
SI 04:00:00 TS -9.17 93.58 30 997 40 30 997 40
SI 06:00:00 TS -9.11 93.83 40 30 997 40
SI 07:00:00 TS -9.09 93.96 30 997 40 30 997 40
SI 09:00:00 TS -9.08 94.23 40 30 997 40
SI 10:00:00 TS -9.09 94.36 30 997 40 30 997 40
SI 12:00:00 TS -9.10 94.63 40 30 997 40
SI 13:00:00 TS -9.11 94.77 30 997 40 30 997 40
SI 15:00:00 TS -9.13 95.04 40 30 997 40
SI 16:00:00 TS -9.14 95.18 30 997 40 30 997 40
SI 18:00:00 TS -9.17 95.45 40 30 997 40
SI 19:00:00 TS -9.18 95.58 30 997 40 30 997 40
SI 21:00:00 TS -9.20 95.82 40 30 997 40
SI 22:00:00 TS -9.22 95.95 30 997 40 30 997 40
SI 1995-12-10 00:00:00 TS -9.25 96.21 40 30 997 40
SI 01:00:00 TS -9.27 96.35 30 997 40 30 997 40
SI 03:00:00 TS -9.29 96.63 40 30 997 40
SI 04:00:00 TS -9.30 96.77 30 997 40 30 997 40
SI 06:00:00 TS -9.32 97.08 40 30 997 40
SI 07:00:00 TS -9.34 97.24 30 997 40 30 997 40
SI 09:00:00 TS -9.37 97.56 40 30 997 40
SI 10:00:00 TS -9.40 97.73 30 997 40 30 997 40
SI 12:00:00 TS -9.48 98.12 40 30 997 40
SI 13:00:00 TS -9.53 98.32 30 997 40 30 997 40
SI 15:00:00 TS -9.64 98.73 40 30 997 40
SI 16:00:00 TS -9.69 98.95 30 997 40 30 997 40
SI 18:00:00 TS -9.79 99.38 40 30 997 40
SI 19:00:00 TS -9.84 99.59 30 997 40 30 997 40
SI 21:00:00 TS -9.93 100.00 40 30 997 40
SI 22:00:00 TS -9.97 100.21 30 997 40 30 997 40
SI 1995-12-11 00:00:00 TS -10.06 100.64 40 30 997 40
SI 01:00:00 TS -10.09 100.86 30 997 39 30 997 39
SI 03:00:00 TS -10.14 101.33 37 30 997 37
SI 04:00:00 TS -10.16 101.57 30 997 36 30 997 36
SI 06:00:00 TS -10.22 102.04 35 30 997 35
SI 07:00:00 TS -10.24 102.27 30 997 35 30 997 35
SI 09:00:00 TS -10.28 102.75 35 30 997 35
SI 10:00:00 TS -10.30 102.98 30 997 35 30 997 35
SI 12:00:00 TS -10.38 103.43 35 30 997 35
SI 13:00:00 TS -10.43 103.66 30 997 35 30 997 35
SI 15:00:00 TS -10.54 104.09 35 30 997 35
SI 16:00:00 TS -10.59 104.30 30 997 35 30 997 35
SI 18:00:00 TS -10.69 104.70 35 30 997 35
SI 19:00:00 TS -10.73 104.89 30 997 34 30 997 34
SI 21:00:00 TS -10.83 105.24 32 30 997 32
SI 22:00:00 TS -10.87 105.42 30 997 31 30 997 31
SI 1995-12-12 00:00:00 TS -10.94 105.77 30 30 997 30
SI 01:00:00 TS -10.96 105.95 30 997 29 30 997 29
SI 03:00:00 TS -11.00 106.33 27 30 997 27
SI 04:00:00 TS -11.03 106.52 30 997 26 30 997 26
SI 06:00:00 TS -11.07 106.88 25 30 997 25
SI 07:00:00 TS -11.09 107.06 30 997 25 30 997 25
SI 09:00:00 TS -11.13 107.42 25 25
SI 12:00:00 TS -11.22 107.93 25 25
SI 15:00:00 TS -11.37 108.39 25 25
SI 18:00:00 TS -11.55 108.82 25 25
SI 21:00:00 TS -11.71 109.25 25 25
SI 1995-12-13 00:00:00 TS -11.89 109.66 25 25
SI 01:00:00 TS -11.95 109.81 25 1000 25 25 1000 25
SI 03:00:00 TS -12.09 110.09 25 25
SI 06:00:00 TS -12.29 110.46 25 25
SI 09:00:00 TS -12.47 110.73 22 22
SI 12:00:00 TS -12.62 110.94 20 20
SI 15:00:00 TS -12.74 111.11 22 22
SI 18:00:00 TS -12.82 111.26 25 25
SI 21:00:00 TS -12.89 111.45 22 22
SI 1995-12-14 00:00:00 TS -12.96 111.65 20 20
SI 01:00:00 TS -12.98 111.71 20 1003 20 20 1003 20
SI 03:00:00 TS -13.03 111.85 22 22
SI 06:00:00 TS -13.09 112.05 25 25
SI 09:00:00 TS -13.15 112.26 27 27
SI 12:00:00 TS -13.17 112.47 30 30
SI 15:00:00 TS -13.13 112.68 27 27
SI 18:00:00 TS -13.09 112.88 25 25
SI 21:00:00 TS -13.10 113.07 25 25
SI 1995-12-15 00:00:00 TS -13.13 113.24 25 25
SI 01:00:00 TS -13.12 113.26 20 1005 25 20 1005 25
SI 03:00:00 TS -13.11 113.34 25 20 1005 25
SI 06:00:00 TS -13.08 113.47 25 20 1005 25
SI 09:00:00 NR -13.01 113.66 20 1005
SI 12:00:00 NR -13.00 113.92 20 1005
SI 13:00:00 NR -13.00 114.00 20 1005 20 1005
SI 15:00:00 NR -13.00 114.19 20 1005
SI 18:00:00 NR -13.00 114.48 20 1005
SI 21:00:00 NR -13.00 114.74 20 1005
SI 1995-12-16 00:00:00 NR -13.00 114.95 20 1005
SI 01:00:00 NR -13.00 115.00 20 1005 20 1005
SI 03:00:00 NR -13.00 115.08
SI 06:00:00 NR -13.00 115.14
SI 09:00:00 NR -13.00 115.13
SI 12:00:00 NR -13.00 115.09
SI 15:00:00 NR -13.00 115.02
SI 16:00:00 NR -13.00 115.00 20 1005 20 1005

Source Information

Agency Information
USA bsh021996.txt
TOKYO
CMA
HKO
NEWDELHI
REUNION
BOM IDCKMSTM0S.csv:Line=18331:EMMA
NADI
WELLINGTON
DS824
TD9636
TD9635
NEUMANN tracks.sh:Storm=1038:EMMA:BSH021996:JTWC&BM843
MLC

All available IBTrACS Data

SEASON BASIN SUBBASIN ISO_TIME_________ NATURE LAT LON WMO WIND WMO PRES WMO AGENCY DIST2LAND LANDFALL IFLAG USA AGENCY USA ATCF_ID USA LAT USA LON USA WIND USA SSHS BOM LAT BOM LON BOM TYPE BOM WIND BOM PRES BOM CI BOM ROCI BOM POS_METHOD BOM PRES_METHOD NEUMANN LAT NEUMANN LON NEUMANN CLASS NEUMANN WIND STORM SPEED STORM DIR
Year degrees north degrees east kts mb km km degrees north degrees east kts 1 degrees north degrees east kts mb 1 nmile degrees north degrees east kts kts degrees
1996 SI WA 1995-12-02 18:00:00 TS -13.40 102.50 796 796 ____________O_ -1 -13.40 102.50 TC 15 10 248
1996 SI WA 19:00:00 TS -13.46 102.34 20 1005 bom 814 814 ____________P_ -1 -13.46 102.34 TC 15 10 249
1996 SI WA 21:00:00 TS -13.58 102.03 838 838 ____________P_ -1 -13.58 102.03 TC 15 10 250
1996 SI WA 22:00:00 TS -13.63 101.88 20 1005 bom 842 842 ____________P_ -1 -13.63 101.88 TC 15 9 254
1996 SI WA 1995-12-03 00:00:00 TS -13.70 101.60 867 867 O___________O_ jtwc_sh SH021996 -13.70 101.60 15 -1 -13.70 101.60 TC 15 8 258
1996 SI WA 01:00:00 TS -13.71 101.47 20 1003 bom 872 872 P___________P_ SH021996 -13.70 101.48 15 -1 -13.72 101.47 TC 15 7 267
1996 SI WA 03:00:00 TS -13.72 101.23 888 888 P___________P_ SH021996 -13.71 101.23 15 -1 -13.73 101.23 TC 15 7 270
1996 SI WA 04:00:00 TS -13.71 101.12 20 1003 bom 893 893 P___________P_ SH021996 -13.71 101.12 15 -1 -13.72 101.11 TC 15 6 273
1996 SI WA 06:00:00 TS -13.70 100.90 904 904 O___________O_ jtwc_sh SH021996 -13.70 100.90 15 -1 -13.70 100.90 TC 15 6 274
1996 SI WA 07:00:00 TS -13.69 100.80 20 1003 bom 910 910 P___________P_ SH021996 -13.69 100.80 15 -1 -13.69 100.80 TC 15 6 276
1996 SI WA 09:00:00 TS -13.67 100.61 922 922 P___________P_ SH021996 -13.67 100.61 15 -1 -13.67 100.61 TC 15 6 278
1996 SI WA 10:00:00 TS -13.65 100.51 20 1003 bom 928 907 P___________P_ SH021996 -13.65 100.51 15 -1 -13.65 100.51 TC 15 7 315
1996 SI WA 12:00:00 TS -13.41 100.34 913 902 O___________O_ jtwc_sh SH021996 -13.60 100.30 15 -1 -13.60 100.30 TC 15 10 328
1996 SI WA 13:00:00 TS -13.24 100.24 20 1003 bom 902 900 P_____O_____P_ SH021996 -13.57 100.18 15 -1 -11.90 100.50 20 20 1003 1.50 134 3 5 -13.57 100.18 TC 15 10 318
1996 SI WA 15:00:00 TS -13.04 99.99 898 896 P_____P_____P_ SH021996 -13.49 99.92 15 -1 -11.83 100.17 20 23 1001 134 -13.49 99.92 TC 15 10 313
1996 SI WA 16:00:00 TS -12.89 99.86 25 1000 bom 896 895 P_____O_____P_ SH021996 -13.43 99.79 15 -1 -11.80 100.00 20 25 1000 2.00 134 3 5 -13.43 99.79 TC 15 10 302
1996 SI WA 18:00:00 TS -12.78 99.56 910 909 O_____P_____O_ jtwc_sh SH021996 -13.30 99.50 15 -1 -11.73 99.67 20 28 1000 134 -13.30 99.50 TC 15 10 292
1996 SI WA 19:00:00 TS -12.71 99.41 30 1000 bom 917 916 P_____O_____P_ SH021996 -13.22 99.36 15 -1 -11.70 99.50 20 30 1000 2.00 134 3 5 -13.22 99.36 TC 15 10 296
1996 SI WA 21:00:00 TS -12.56 99.10 932 924 P_____P_____P_ SH021996 -13.02 99.06 17 -1 -11.63 99.17 20 26 1000 134 -13.02 99.06 TC 17 10 297
1996 SI WA 22:00:00 TS -12.48 98.94 25 1000 bom 940 933 P_____O_____P_ SH021996 -12.92 98.91 18 -1 -11.60 99.00 20 25 1000 2.00 134 3 5 -12.92 98.91 TC 18 11 298
1996 SI WA 1995-12-04 00:00:00 TS -12.31 98.62 950 950 O_____P_____O_ jtwc_sh SH021996 -12.70 98.60 20 -1 -11.53 98.67 20 25 1000 134 -12.70 98.60 TC 20 11 298
1996 SI WA 01:00:00 TS -12.23 98.46 25 1000 bom 951 960 P_____O_____P_ SH021996 -12.60 98.44 20 -1 -11.50 98.50 20 25 1000 2.00 134 3 5 -12.60 98.44 TC 20 11 296
1996 SI WA 03:00:00 TS -12.07 98.12 979 972 P_____P_____P_ SH021996 -12.39 98.11 22 -1 -11.43 98.16 20 28 998 134 -12.39 98.11 TC 22 11 296
1996 SI WA 04:00:00 TS -11.99 97.96 30 998 bom 981 984 P_____O_____P_ SH021996 -12.29 97.94 23 -1 -11.40 98.00 20 30 998 2.50 134 3 5 -12.29 97.94 TC 23 10 296
1996 SI WA 06:00:00 TS -11.85 97.64 1004 1004 O_____P_____O_ jtwc_sh SH021996 -12.10 97.60 25 -1 -11.34 97.73 20 30 998 134 -12.10 97.60 TC 25 10 295
1996 SI WA 07:00:00 TS -11.78 97.49 30 998 bom 1011 1008 P_____O_____P_ SH021996 -12.01 97.43 25 -1 -11.30 97.60 20 30 998 2.50 134 3 5 -12.01 97.43 TC 25 10 296
1996 SI WA 09:00:00 TS -11.62 97.17 1013 1013 P_____P_____P_ SH021996 -11.85 97.09 27 -1 -11.17 97.33 20 30 998 134 -11.85 97.09 TC 27 10 297
1996 SI WA 10:00:00 TS -11.55 97.02 30 998 bom 1018 1018 P_____O_____P_ SH021996 -11.77 96.93 28 -1 -11.10 97.20 20 30 998 2.50 134 3 5 -11.77 96.93 TC 28 10 297
1996 SI WA 12:00:00 TS -11.39 96.71 1031 1030 O_____P_____O_ jtwc_sh SH021996 -11.60 96.60 30 -1 -10.97 96.93 20 33 996 134 -11.60 96.60 TC 30 10 298
1996 SI WA 13:00:00 TS -11.30 96.55 35 995 bom 1030 1029 P_____O_____P_ SH021996 -11.50 96.43 30 -1 -10.90 96.80 30 35 995 3.00 134 3 5 -11.50 96.43 TC 30 10 304
1996 SI WA 15:00:00 TS -11.10 96.27 1034 1033 P_____P_____P_ SH021996 -11.30 96.10 30 -1 -10.71 96.59 30 35 995 134 -11.30 96.10 TC 30 10 307
1996 SI WA 16:00:00 TS -11.00 96.14 35 995 bom 1040 1031 P_____O_____P_ SH021996 -11.20 95.96 30 -1 -10.60 96.50 30 35 995 3.00 134 3 5 -11.20 95.96 TC 30 9 310
1996 SI WA 18:00:00 TS -10.80 95.90 1038 1038 O_____P_____O_ jtwc_sh SH021996 -11.00 95.70 30 -1 -10.40 96.30 30 38 991 134 -11.00 95.70 TC 30 9 311
1996 SI WA 19:00:00 TS -10.71 95.80 40 990 bom 1038 1037 P_____O_____P_ SH021996 -10.91 95.60 30 -1 -10.30 96.20 30 40 990 3.00 134 3 5 -10.91 95.60 TC 30 8 317
1996 SI WA 21:00:00 TS -10.52 95.63 1037 1029 P_____P_____P_ SH021996 -10.73 95.45 30 -1 -10.09 96.00 30 40 990 134 -10.73 95.45 TC 30 7 319
1996 SI WA 22:00:00 TS -10.44 95.56 40 990 bom 1029 1030 P_____O_____P_ SH021996 -10.65 95.39 30 -1 -10.00 95.90 30 40 990 3.00 134 3 5 -10.65 95.39 TC 30 6 320
1996 SI WA 1995-12-05 00:00:00 TS -10.29 95.43 1036 1026 O_____P_____O_ jtwc_sh SH021996 -10.50 95.30 30 -1 -9.86 95.70 30 36 993 134 -10.50 95.30 TC 30 6 320
1996 SI WA 01:00:00 TS -10.22 95.37 35 995 bom 1026 1020 P_____O_____P_ SH021996 -10.43 95.26 30 -1 -9.80 95.60 30 35 995 3.00 134 3 5 -10.43 95.26 TC 30 5 321
1996 SI WA 03:00:00 TS -10.08 95.26 1020 1015 P_____P_____P_ SH021996 -10.29 95.19 30 -1 -9.67 95.40 30 35 995 134 -10.29 95.19 TC 30 5 321
1996 SI WA 04:00:00 TS -10.02 95.21 35 995 bom 1015 1009 P_____O_____P_ SH021996 -10.23 95.16 30 -1 -9.60 95.30 30 35 995 3.00 134 3 5 -10.23 95.16 TC 30 5 321
1996 SI WA 06:00:00 TS -9.89 95.10 1009 999 O_____P_____O_ jtwc_sh SH021996 -10.10 95.10 30 -1 -9.46 95.10 30 35 995 134 -10.10 95.10 TC 30 5 320
1996 SI WA 07:00:00 TS -9.82 95.04 35 995 bom 1004 994 P_____O_____P_ SH021996 -10.03 95.06 30 -1 -9.40 95.00 30 35 995 3.00 134 3 5 -10.03 95.06 TC 30 6 315
1996 SI WA 09:00:00 TS -9.69 94.90 999 994 P_____P_____P_ SH021996 -9.88 94.96 30 -1 -9.31 94.79 30 35 995 134 -9.88 94.96 TC 30 5 312
1996 SI WA 10:00:00 TS -9.64 94.84 35 995 bom 994 994 P_____O_____P_ SH021996 -9.81 94.91 30 -1 -9.30 94.70 30 35 995 3.00 134 3 5 -9.81 94.91 TC 30 4 300
1996 SI WA 12:00:00 TS -9.59 94.72 999 999 O_____P_____O_ jtwc_sh SH021996 -9.70 94.80 30 -1 -9.36 94.56 30 35 995 134 -9.70 94.80 TC 30 4 291
1996 SI WA 13:00:00 TS -9.58 94.67 35 995 bom 999 999 P_____O_____P_ SH021996 -9.66 94.75 30 -1 -9.40 94.50 30 35 995 3.00 134 3 5 -9.66 94.75 TC 30 3 276
1996 SI WA 15:00:00 TS -9.57 94.56 1004 1004 P_____P_____P_ SH021996 -9.62 94.66 30 -1 -9.47 94.37 30 35 995 134 -9.62 94.66 TC 30 3 271
1996 SI WA 16:00:00 TS -9.57 94.51 35 995 bom 1010 1010 P_____O_____P_ SH021996 -9.61 94.61 30 -1 -9.50 94.30 30 35 995 3.00 134 3 5 -9.61 94.61 TC 30 3 263
1996 SI WA 18:00:00 TS -9.59 94.39 1015 1015 O_____P_____O_ jtwc_sh SH021996 -9.60 94.50 30 -1 -9.57 94.16 30 31 996 134 -9.60 94.50 TC 30 4 264
1996 SI WA 19:00:00 TS -9.59 94.33 30 997 bom 1021 1021 P_____O_____P_ SH021996 -9.59 94.44 30 -1 -9.60 94.10 20 30 997 2.50 134 3 5 -9.59 94.44 TC 30 3 265
1996 SI WA 21:00:00 TS -9.60 94.21 1026 1026 P_____P_____P_ SH021996 -9.57 94.31 30 -1 -9.67 94.03 20 30 997 134 -9.57 94.31 TC 30 3 262
1996 SI WA 22:00:00 TS -9.61 94.16 30 997 bom 1026 1032 P_____O_____P_ SH021996 -9.57 94.24 30 -1 -9.70 94.00 20 30 997 2.50 134 3 5 -9.57 94.24 TC 30 3 252
1996 SI WA 1995-12-06 00:00:00 TS -9.66 94.05 1047 1047 O_____P_____O_ jtwc_sh SH021996 -9.60 94.10 30 -1 -9.77 93.94 20 30 997 134 -9.60 94.10 TC 30 4 246
1996 SI WA 01:00:00 TS -9.69 93.99 30 997 bom 1047 1047 P_____O_____P_ SH021996 -9.63 94.03 29 -1 -9.80 93.90 20 30 997 2.50 134 3 5 -9.63 94.03 TC 29 4 239
1996 SI WA 03:00:00 TS -9.77 93.86 1062 1062 P_____P_____P_ SH021996 -9.73 93.90 27 -1 -9.85 93.77 20 30 997 134 -9.73 93.90 TC 27 5 236
1996 SI WA 04:00:00 TS -9.82 93.79 30 997 bom 1068 1068 P_____O_____P_ SH021996 -9.78 93.83 26 -1 -9.90 93.70 20 30 997 2.50 134 3 5 -9.78 93.83 TC 26 6 225
1996 SI WA 06:00:00 TS -9.96 93.66 1093 1093 O_____P_____O_ jtwc_sh SH021996 -9.90 93.70 25 -1 -10.09 93.57 20 30 997 134 -9.90 93.70 TC 25 6 222
1996 SI WA 07:00:00 TS -10.04 93.59 30 997 bom 1099 1099 P_____O_____P_ SH021996 -9.96 93.63 25 -1 -10.20 93.50 20 30 997 2.50 134 3 5 -9.96 93.63 TC 25 6 222
1996 SI WA 09:00:00 TS -10.18 93.46 1124 1124 P_____P_____P_ SH021996 -10.06 93.50 25 -1 -10.42 93.37 20 30 997 134 -10.06 93.50 TC 25 6 223
1996 SI WA 10:00:00 TS -10.24 93.39 30 997 bom 1130 1139 P_____O_____P_ SH021996 -10.12 93.43 25 -1 -10.50 93.30 20 30 997 2.50 134 3 5 -10.12 93.43 TC 25 5 234
1996 SI WA 12:00:00 TS -10.33 93.26 1145 1145 O_____P_____O_ jtwc_sh SH021996 -10.20 93.30 25 -1 -10.58 93.17 20 30 997 134 -10.20 93.30 TC 25 5 242
1996 SI WA 13:00:00 TS -10.35 93.19 30 997 bom 1160 1160 P_____O_____P_ SH021996 -10.23 93.23 25 -1 -10.60 93.10 20 30 997 2.50 134 3 5 -10.23 93.23 TC 25 4 250
1996 SI WA 15:00:00 TS -10.40 93.05 1172 1172 P_____P_____P_ SH021996 -10.27 93.08 25 -1 -10.67 92.97 20 30 997 134 -10.27 93.08 TC 25 4 252
1996 SI WA 16:00:00 TS -10.42 92.98 30 997 bom 1172 1172 P_____O_____P_ SH021996 -10.28 93.02 25 -1 -10.70 92.90 20 30 997 2.50 134 3 5 -10.28 93.02 TC 25 4 260
1996 SI WA 18:00:00 TS -10.44 92.86 1179 1179 O_____P_____O_ jtwc_sh SH021996 -10.30 92.90 25 -1 -10.71 92.77 20 30 997 134 -10.30 92.90 TC 25 3 261
1996 SI WA 19:00:00 TS -10.45 92.80 30 997 bom 1185 1185 P_____O_____P_ SH021996 -10.32 92.86 25 -1 -10.70 92.70 20 30 997 2.50 134 3 5 -10.32 92.86 TC 25 3 255
1996 SI WA 21:00:00 TS -10.47 92.71 1200 1200 P_____P_____P_ SH021996 -10.36 92.79 25 -1 -10.70 92.57 20 30 997 134 -10.36 92.79 TC 25 3 254
1996 SI WA 22:00:00 TS -10.48 92.67 30 997 bom 1200 1200 P_____O_____P_ SH021996 -10.37 92.76 25 -1 -10.70 92.50 20 30 997 2.50 134 3 5 -10.37 92.76 TC 25 3 259
1996 SI WA 1995-12-07 00:00:00 TS -10.50 92.57 1207 1207 O_____P_____O_ jtwc_sh SH021996 -10.40 92.70 25 -1 -10.70 92.31 20 30 997 134 -10.40 92.70 TC 25 3 262
1996 SI WA 01:00:00 TS -10.50 92.51 30 997 bom 1213 1213 P_____O_____P_ SH021996 -10.41 92.67 25 -1 -10.70 92.20 20 30 997 2.50 134 3 5 -10.41 92.67 TC 25 3 269
1996 SI WA 03:00:00 TS -10.50 92.40 1220 1220 P_____P_____P_ SH021996 -10.41 92.60 25 -1 -10.69 92.00 20 30 997 134 -10.41 92.60 TC 25 3 270
1996 SI WA 04:00:00 TS -10.50 92.34 30 997 bom 1226 1226 P_____O_____P_ SH021996 -10.41 92.57 25 -1 -10.70 91.90 20 30 997 2.50 134 3 5 -10.41 92.57 TC 25 3 264
1996 SI WA 06:00:00 TS -10.52 92.23 1233 1233 O_____P_____O_ jtwc_sh SH021996 -10.40 92.50 25 -1 -10.76 91.70 20 30 997 134 -10.40 92.50 TC 25 3 259
1996 SI WA 07:00:00 TS -10.54 92.18 30 997 bom 1233 1233 P_____O_____P_ SH021996 -10.40 92.47 25 -1 -10.80 91.60 20 30 997 2.50 134 3 5 -10.40 92.47 TC 25 3 255
1996 SI WA 09:00:00 TS -10.57 92.06 1248 1248 P_____P_____P_ SH021996 -10.41 92.40 25 -1 -10.88 91.39 20 30 997 134 -10.41 92.40 TC 25 3 257
1996 SI WA 10:00:00 TS -10.57 92.01 30 997 bom 1255 1255 P_____O_____P_ SH021996 -10.41 92.37 25 -1 -10.90 91.30 20 30 997 2.50 134 3 5 -10.41 92.37 TC 25 3 277
1996 SI WA 12:00:00 TS -10.55 91.92 1253 1253 O_____P_____O_ jtwc_sh SH021996 -10.40 92.30 25 -1 -10.84 91.15 20 30 997 134 -10.40 92.30 TC 25 3 289
1996 SI WA 13:00:00 TS -10.53 91.88 30 997 bom 1253 1253 P_____O_____P_ SH021996 -10.39 92.27 25 -1 -10.80 91.10 20 30 997 2.50 134 3 5 -10.39 92.27 TC 25 2 305
1996 SI WA 15:00:00 TS -10.49 91.83 1260 1260 P_____P_____P_ SH021996 -10.36 92.20 25 -1 -10.73 91.08 20 30 997 134 -10.36 92.20 TC 25 2 311
1996 SI WA 16:00:00 TS -10.46 91.81 30 997 bom 1260 1251 P_____O_____P_ SH021996 -10.35 92.17 25 -1 -10.70 91.10 20 30 997 2.50 134 3 5 -10.35 92.17 TC 25 2 330
1996 SI WA 18:00:00 TS -10.41 91.79 1251 1251 O_____P_____O_ jtwc_sh SH021996 -10.30 92.10 25 -1 -10.63 91.16 20 30 997 134 -10.30 92.10 TC 25 2 339
1996 SI WA 19:00:00 TS -10.38 91.78 30 997 bom 1251 1242 P_____O_____P_ SH021996 -10.27 92.06 25 -1 -10.60 91.20 20 30 997 2.50 134 3 5 -10.27 92.06 TC 25 2 342
1996 SI WA 21:00:00 TS -10.32 91.75 1242 1242 P_____P_____P_ SH021996 -10.21 91.99 25 -1 -10.54 91.27 20 30 997 134 -10.21 91.99 TC 25 2 343
1996 SI WA 22:00:00 TS -10.28 91.74 30 997 bom 1249 1241 P_____O_____P_ SH021996 -10.17 91.96 25 -1 -10.50 91.30 20 30 997 2.50 134 3 5 -10.17 91.96 TC 25 3 0
1996 SI WA 1995-12-08 00:00:00 TS -10.19 91.72 1241 1232 O_____P_____O_ jtwc_sh SH021996 -10.10 91.90 25 -1 -10.38 91.37 20 30 997 134 -10.10 91.90 TC 25 3 351
1996 SI WA 01:00:00 TS -10.15 91.71 30 997 bom 1232 1224 P_____O_____P_ SH021996 -10.07 91.87 25 -1 -10.30 91.40 20 30 997 2.50 134 3 5 -10.07 91.87 TC 25 3 359
1996 SI WA 03:00:00 TS -10.04 91.70 1224 1224 P_____P_____P_ SH021996 -10.01 91.82 27 -1 -10.11 91.46 20 30 997 134 -10.01 91.82 TC 27 3 0
1996 SI WA 04:00:00 TS -9.98 91.70 30 997 bom 1224 1216 P_____O_____P_ SH021996 -9.97 91.80 28 -1 -10.00 91.50 20 30 997 2.50 134 3 5 -9.97 91.80 TC 28 4 14
1996 SI WA 06:00:00 TS -9.86 91.74 1216 1200 O_____P_____O_ jtwc_sh SH021996 -9.90 91.80 30 -1 -9.79 91.63 20 30 997 134 -9.90 91.80 TC 30 4 21
1996 SI WA 07:00:00 TS -9.80 91.77 30 997 bom 1200 1191 P_____O_____P_ SH021996 -9.85 91.81 30 -1 -9.70 91.70 20 30 997 2.50 134 3 5 -9.85 91.81 TC 30 4 31
1996 SI WA 09:00:00 TS -9.68 91.85 1184 1176 P_____P_____P_ SH021996 -9.75 91.86 32 -1 -9.55 91.83 20 30 997 134 -9.75 91.86 TC 32 4 37
1996 SI WA 10:00:00 TS -9.63 91.90 30 997 bom 1176 1160 P_____O_____P_ SH021996 -9.70 91.90 33 -1 -9.50 91.90 20 30 997 2.50 134 3 5 -9.70 91.90 TC 33 5 51
1996 SI WA 12:00:00 TS -9.54 92.03 1160 1153 O_____P_____O_ jtwc_sh SH021996 -9.60 92.00 35 0 -9.43 92.09 20 30 997 134 -9.60 92.00 TC 35 5 57
1996 SI WA 13:00:00 TS -9.51 92.10 30 997 bom 1153 1137 P_____O_____P_ SH021996 -9.56 92.05 35 0 -9.40 92.20 20 30 997 2.50 134 3 5 -9.56 92.05 TC 35 5 63
1996 SI WA 15:00:00 TS -9.43 92.25 1137 1130 P_____P_____P_ SH021996 -9.48 92.17 37 0 -9.33 92.40 20 30 997 134 -9.48 92.17 TC 37 5 65
1996 SI WA 16:00:00 TS -9.40 92.33 30 997 bom 1130 1107 P_____O_____P_ SH021996 -9.45 92.24 38 0 -9.30 92.50 20 30 997 2.50 134 3 5 -9.45 92.24 TC 38 5 70
1996 SI WA 18:00:00 TS -9.34 92.50 1107 1100 O_____P_____O_ jtwc_sh SH021996 -9.40 92.40 40 0 -9.23 92.70 20 30 997 134 -9.40 92.40 TC 40 5 72
1996 SI WA 19:00:00 TS -9.32 92.59 30 997 bom 1100 1086 P_____O_____P_ SH021996 -9.38 92.48 40 0 -9.20 92.80 20 30 997 2.50 134 3 5 -9.38 92.48 TC 40 6 76
1996 SI WA 21:00:00 TS -9.28 92.78 1086 1080 P_____P_____P_ SH021996 -9.35 92.67 40 0 -9.13 93.00 20 30 997 134 -9.35 92.67 TC 40 6 78
1996 SI WA 22:00:00 TS -9.26 92.88 30 997 bom 1080 1057 P_____O_____P_ SH021996 -9.34 92.77 40 0 -9.10 93.10 20 30 997 2.50 134 3 5 -9.34 92.77 TC 40 6 82
1996 SI WA 1995-12-09 00:00:00 TS -9.23 93.10 1057 1050 O_____P_____O_ jtwc_sh SH021996 -9.30 93.00 40 0 -9.09 93.30 20 30 997 134 -9.30 93.00 TC 40 7 82
1996 SI WA 01:00:00 TS -9.21 93.21 30 997 bom 1050 1037 P_____O_____P_ SH021996 -9.27 93.12 40 0 -9.10 93.40 20 30 997 2.50 134 3 5 -9.27 93.12 TC 40 7 83
1996 SI WA 03:00:00 TS -9.19 93.45 1031 1024 P_____P_____P_ SH021996 -9.19 93.38 40 0 -9.18 93.60 20 30 997 134 -9.19 93.38 TC 40 7 84
1996 SI WA 04:00:00 TS -9.17 93.58 30 997 bom 1024 1003 P_____O_____P_ SH021996 -9.16 93.51 40 0 -9.20 93.70 20 30 997 2.50 134 3 5 -9.16 93.51 TC 40 8 79
1996 SI WA 06:00:00 TS -9.11 93.83 1003 990 O_____P_____O_ jtwc_sh SH021996 -9.10 93.80 40 0 -9.14 93.90 20 30 997 134 -9.10 93.80 TC 40 8 78
1996 SI WA 07:00:00 TS -9.09 93.96 30 997 bom 990 978 P_____O_____P_ SH021996 -9.09 93.94 40 0 -9.10 94.00 20 30 997 2.50 134 3 5 -9.09 93.94 TC 40 8 86
1996 SI WA 09:00:00 TS -9.08 94.23 978 967 P_____P_____P_ SH021996 -9.08 94.24 40 0 -9.09 94.20 20 30 997 134 -9.08 94.24 TC 40 8 90
1996 SI WA 10:00:00 TS -9.09 94.36 30 997 bom 967 956 P_____O_____P_ SH021996 -9.08 94.39 40 0 -9.10 94.30 20 30 997 2.50 134 3 5 -9.08 94.39 TC 40 8 92
1996 SI WA 12:00:00 TS -9.10 94.63 956 945 O_____P_____O_ jtwc_sh SH021996 -9.10 94.70 40 0 -9.10 94.50 20 30 997 134 -9.10 94.70 TC 40 8 93
1996 SI WA 13:00:00 TS -9.11 94.77 30 997 bom 945 934 P_____O_____P_ SH021996 -9.11 94.86 40 0 -9.10 94.60 20 30 997 2.50 134 3 5 -9.11 94.86 TC 40 8 94
1996 SI WA 15:00:00 TS -9.13 95.04 934 924 P_____P_____P_ SH021996 -9.14 95.16 40 0 -9.10 94.79 20 30 997 134 -9.14 95.16 TC 40 8 95
1996 SI WA 16:00:00 TS -9.14 95.18 30 997 bom 924 919 P_____O_____P_ SH021996 -9.16 95.32 40 0 -9.10 94.90 20 30 997 2.50 134 3 5 -9.16 95.32 TC 40 8 95
1996 SI WA 18:00:00 TS -9.17 95.45 919 915 O_____P_____O_ jtwc_sh SH021996 -9.20 95.60 40 0 -9.10 95.16 20 30 997 134 -9.20 95.60 TC 40 8 95
1996 SI WA 19:00:00 TS -9.18 95.58 30 997 bom 915 906 P_____O_____P_ SH021996 -9.22 95.73 40 0 -9.10 95.30 20 30 997 2.50 134 3 5 -9.22 95.73 TC 40 7 96
1996 SI WA 21:00:00 TS -9.20 95.82 906 901 P_____P_____P_ SH021996 -9.26 95.96 40 0 -9.09 95.56 20 30 997 134 -9.26 95.96 TC 40 7 96
1996 SI WA 22:00:00 TS -9.22 95.95 30 997 bom 901 889 P_____O_____P_ SH021996 -9.27 96.07 40 0 -9.10 95.70 20 30 997 2.50 134 3 5 -9.27 96.07 TC 40 8 98
1996 SI WA 1995-12-10 00:00:00 TS -9.25 96.21 898 890 O_____P_____O_ jtwc_sh SH021996 -9.30 96.30 40 0 -9.16 96.03 20 30 997 134 -9.30 96.30 TC 40 8 98
1996 SI WA 01:00:00 TS -9.27 96.35 30 997 bom 890 865 P_____O_____P_ SH021996 -9.30 96.42 40 0 -9.20 96.20 20 30 997 2.50 134 3 5 -9.30 96.42 TC 40 8 95
1996 SI WA 03:00:00 TS -9.29 96.63 865 849 P_____P_____P_ SH021996 -9.30 96.68 40 0 -9.27 96.53 20 30 997 134 -9.30 96.68 TC 40 8 94
1996 SI WA 04:00:00 TS -9.30 96.77 30 997 bom 849 826 P_____O_____P_ SH021996 -9.30 96.81 40 0 -9.30 96.70 20 30 997 2.50 134 3 5 -9.30 96.81 TC 40 9 94
1996 SI WA 06:00:00 TS -9.32 97.08 826 818 O_____P_____O_ jtwc_sh SH021996 -9.30 97.10 40 0 -9.37 97.03 20 30 997 134 -9.30 97.10 TC 40 9 95
1996 SI WA 07:00:00 TS -9.34 97.24 30 997 bom 818 803 P_____O_____P_ SH021996 -9.31 97.25 40 0 -9.40 97.20 20 30 997 2.50 134 3 5 -9.31 97.25 TC 40 10 96
1996 SI WA 09:00:00 TS -9.37 97.56 797 790 P_____P_____P_ SH021996 -9.33 97.58 40 0 -9.46 97.52 20 30 997 134 -9.33 97.58 TC 40 10 97
1996 SI WA 10:00:00 TS -9.40 97.73 30 997 bom 790 769 P_____O_____P_ SH021996 -9.35 97.75 40 0 -9.50 97.70 20 30 997 2.50 134 3 5 -9.35 97.75 TC 40 11 101
1996 SI WA 12:00:00 TS -9.48 98.12 771 756 O_____P_____O_ jtwc_sh SH021996 -9.40 98.10 40 0 -9.63 98.15 20 30 997 134 -9.40 98.10 TC 40 12 103
1996 SI WA 13:00:00 TS -9.53 98.32 30 997 bom 756 735 P_____O_____P_ SH021996 -9.44 98.27 40 0 -9.70 98.40 20 30 997 2.50 134 3 5 -9.44 98.27 TC 40 13 105
1996 SI WA 15:00:00 TS -9.64 98.73 735 729 P_____P_____P_ SH021996 -9.53 98.63 40 0 -9.84 98.93 20 30 997 134 -9.53 98.63 TC 40 13 105
1996 SI WA 16:00:00 TS -9.69 98.95 30 997 bom 731 711 P_____O_____P_ SH021996 -9.59 98.82 40 0 -9.90 99.20 20 30 997 2.50 134 3 5 -9.59 98.82 TC 40 13 104
1996 SI WA 18:00:00 TS -9.79 99.38 706 693 O_____P_____O_ jtwc_sh SH021996 -9.70 99.20 40 0 -9.97 99.74 20 30 997 134 -9.70 99.20 TC 40 13 103
1996 SI WA 19:00:00 TS -9.84 99.59 30 997 bom 693 669 P_____O_____P_ SH021996 -9.75 99.38 40 0 -10.00 100.00 20 30 997 2.50 134 3 5 -9.75 99.38 TC 40 13 103
1996 SI WA 21:00:00 TS -9.93 100.00 669 656 P_____P_____P_ SH021996 -9.86 99.76 40 0 -10.07 100.48 20 30 997 134 -9.86 99.76 TC 40 13 103
1996 SI WA 22:00:00 TS -9.97 100.21 30 997 bom 656 620 P_____O_____P_ SH021996 -9.91 99.96 40 0 -10.10 100.70 20 30 997 2.50 134 3 5 -9.91 99.96 TC 40 13 102
1996 SI WA 1995-12-11 00:00:00 TS -10.06 100.64 626 600 O_____P_____O_ jtwc_sh SH021996 -10.00 100.40 40 0 -10.17 101.11 20 30 997 134 -10.00 100.40 TC 40 13 101
1996 SI WA 01:00:00 TS -10.09 100.86 30 997 bom 600 566 P_____O_____P_ SH021996 -10.04 100.65 39 0 -10.20 101.30 20 30 997 2.50 134 3 5 -10.04 100.65 TC 39 14 97
1996 SI WA 03:00:00 TS -10.14 101.33 566 549 P_____P_____P_ SH021996 -10.12 101.18 37 0 -10.20 101.64 20 30 997 134 -10.12 101.18 TC 37 14 96
1996 SI WA 04:00:00 TS -10.16 101.57 30 997 bom 549 518 P_____O_____P_ SH021996 -10.15 101.45 36 0 -10.20 101.80 20 30 997 2.50 134 3 5 -10.15 101.45 TC 36 14 96
1996 SI WA 06:00:00 TS -10.22 102.04 518 496 O_____P_____O_ jtwc_sh SH021996 -10.20 102.00 35 0 -10.26 102.13 20 30 997 134 -10.20 102.00 TC 35 14 97
1996 SI WA 07:00:00 TS -10.24 102.27 30 997 bom 496 478 P_____O_____P_ SH021996 -10.22 102.26 35 0 -10.30 102.30 20 30 997 2.50 134 3 5 -10.22 102.26 TC 35 14 95
1996 SI WA 09:00:00 TS -10.28 102.75 478 460 P_____P_____P_ SH021996 -10.24 102.77 35 0 -10.36 102.69 20 30 997 134 -10.24 102.77 TC 35 14 95
1996 SI WA 10:00:00 TS -10.30 102.98 30 997 bom 460 444 P_____O_____P_ SH021996 -10.26 103.02 35 0 -10.40 102.90 20 30 997 2.50 134 3 7 -10.26 103.02 TC 35 14 98
1996 SI WA 12:00:00 TS -10.38 103.43 449 435 O_____P_____O_ jtwc_sh SH021996 -10.30 103.50 35 0 -10.53 103.30 20 30 997 134 -10.30 103.50 TC 35 14 100
1996 SI WA 13:00:00 TS -10.43 103.66 30 997 bom 435 429 P_____O_____P_ SH021996 -10.34 103.74 35 0 -10.60 103.50 20 30 997 2.50 134 3 5 -10.34 103.74 TC 35 13 104
1996 SI WA 15:00:00 TS -10.54 104.09 429 426 P_____P_____P_ SH021996 -10.43 104.19 35 0 -10.74 103.90 20 30 997 134 -10.43 104.19 TC 35 13 105
1996 SI WA 16:00:00 TS -10.59 104.30 30 997 bom 426 414 P_____O_____P_ SH021996 -10.49 104.40 35 0 -10.80 104.10 20 30 997 2.50 134 3 5 -10.49 104.40 TC 35 12 104
1996 SI WA 18:00:00 TS -10.69 104.70 414 404 O_____P_____O_ jtwc_sh SH021996 -10.60 104.80 35 0 -10.87 104.50 20 30 997 134 -10.60 104.80 TC 35 12 104
1996 SI WA 19:00:00 TS -10.73 104.89 30 997 bom 404 403 P_____O_____P_ SH021996 -10.65 104.98 34 0 -10.90 104.70 20 30 997 2.50 134 3 5 -10.65 104.98 TC 34 11 105
1996 SI WA 21:00:00 TS -10.83 105.24 403 399 P_____P_____P_ SH021996 -10.76 105.32 32 -1 -10.97 105.10 20 30 997 134 -10.76 105.32 TC 32 11 105
1996 SI WA 22:00:00 TS -10.87 105.42 30 997 bom 407 399 P_____O_____P_ SH021996 -10.81 105.48 31 -1 -11.00 105.30 20 30 997 2.50 134 3 5 -10.81 105.48 TC 31 11 102
1996 SI WA 1995-12-12 00:00:00 TS -10.94 105.77 397 395 O_____P_____O_ jtwc_sh SH021996 -10.90 105.80 30 -1 -11.01 105.70 20 30 997 134 -10.90 105.80 TC 30 11 99
1996 SI WA 01:00:00 TS -10.96 105.95 30 997 bom 405 403 P_____O_____P_ SH021996 -10.94 105.98 29 -1 -11.00 105.90 20 30 997 2.50 134 3 5 -10.94 105.98 TC 29 11 97
1996 SI WA 03:00:00 TS -11.00 106.33 403 396 P_____P_____P_ SH021996 -11.01 106.34 27 -1 -11.00 106.31 20 30 997 134 -11.01 106.34 TC 27 11 97
1996 SI WA 04:00:00 TS -11.03 106.52 30 997 bom 396 388 P_____O_____P_ SH021996 -11.04 106.53 26 -1 -11.00 106.50 20 30 997 2.50 134 3 5 -11.04 106.53 TC 26 11 96
1996 SI WA 06:00:00 TS -11.07 106.88 393 388 O_____P_____O_ jtwc_sh SH021996 -11.10 106.90 25 -1 -11.00 106.84 20 30 997 134 -11.10 106.90 TC 25 11 96
1996 SI WA 07:00:00 TS -11.09 107.06 30 997 bom 388 383 P_____O_____P_ SH021996 -11.13 107.09 25 -1 -11.00 107.00 20 30 997 2.50 134 3 5 -11.13 107.09 TC 25 11 97
1996 SI WA 09:00:00 TS -11.13 107.42 383 379 P_____P_____P_ SH021996 -11.18 107.47 25 -1 -11.02 107.32 20 -11.18 107.47 TC 25 10 99
1996 SI WA 12:00:00 TS -11.22 107.93 384 383 O_____P_____O_ jtwc_sh SH021996 -11.30 108.00 25 -1 -11.07 107.79 20 -11.30 108.00 TC 25 10 104
1996 SI WA 15:00:00 TS -11.37 108.39 403 403 P_____P_____P_ SH021996 -11.48 108.47 25 -1 -11.15 108.24 20 -11.48 108.47 TC 25 9 110
1996 SI WA 18:00:00 TS -11.55 108.82 415 415 O_____P_____O_ jtwc_sh SH021996 -11.70 108.90 25 -1 -11.24 108.66 20 -11.70 108.90 TC 25 9 112
1996 SI WA 21:00:00 TS -11.71 109.25 425 420 P_____P_____P_ SH021996 -11.89 109.35 25 -1 -11.35 109.04 20 -11.89 109.35 TC 25 9 112
1996 SI WA 1995-12-13 00:00:00 TS -11.89 109.66 428 426 O_____P_____O_ jtwc_sh SH021996 -12.10 109.80 25 -1 -11.46 109.39 20 -12.10 109.80 TC 25 9 114
1996 SI WA 01:00:00 TS -11.95 109.81 25 1000 bom 436 432 P_____O_____P_ SH021996 -12.18 109.96 25 -1 -11.50 109.50 20 25 1000 2.00 134 3 5 -12.18 109.96 TC 25 9 116
1996 SI WA 03:00:00 TS -12.09 110.09 441 439 P_____P_____P_ SH021996 -12.35 110.28 25 -1 -11.56 109.70 20 -12.35 110.28 TC 25 9 118
1996 SI WA 06:00:00 TS -12.29 110.46 454 452 O_____P_____O_ jtwc_sh SH021996 -12.60 110.70 25 -1 -11.66 109.97 20 -12.60 110.70 TC 25 7 121
1996 SI WA 09:00:00 TS -12.47 110.73 472 469 P_____P_____P_ SH021996 -12.82 111.00 22 -1 -11.76 110.21 20 -12.82 111.00 TC 22 6 125
1996 SI WA 12:00:00 TS -12.62 110.94 478 476 O_____P_____O_ jtwc_sh SH021996 -13.00 111.20 20 -1 -11.86 110.42 20 -13.00 111.20 TC 20 5 126
1996 SI WA 15:00:00 TS -12.74 111.11 486 486 P_____P_____P_ SH021996 -13.12 111.36 22 -1 -11.96 110.61 20 -13.12 111.36 TC 22 4 123
1996 SI WA 18:00:00 TS -12.82 111.26 494 494 O_____P_____O_ jtwc_sh SH021996 -13.20 111.50 25 -1 -12.07 110.79 20 -13.20 111.50 TC 25 4 116
1996 SI WA 21:00:00 TS -12.89 111.45 505 504 P_____P_____P_ SH021996 -13.26 111.69 22 -1 -12.17 110.96 20 -13.26 111.69 TC 22 4 110
1996 SI WA 1995-12-14 00:00:00 TS -12.96 111.65 515 515 O_____P_____O_ jtwc_sh SH021996 -13.30 111.90 20 -1 -12.27 111.14 20 -13.30 111.90 TC 20 4 108
1996 SI WA 01:00:00 TS -12.98 111.71 20 1003 bom 515 515 P_____O_____P_ SH021996 -13.32 111.97 20 -1 -12.30 111.20 20 20 1003 2.00 134 3 5 -13.32 111.97 TC 20 4 111
1996 SI WA 03:00:00 TS -13.03 111.85 515 515 P_____P_____P_ SH021996 -13.36 112.10 22 -1 -12.37 111.34 20 -13.36 112.10 TC 22 4 109
1996 SI WA 06:00:00 TS -13.09 112.05 528 528 O_____P_____O_ jtwc_sh SH021996 -13.40 112.30 25 -1 -12.48 111.56 20 -13.40 112.30 TC 25 4 106
1996 SI WA 09:00:00 TS -13.15 112.26 528 528 P_____P_____P_ SH021996 -13.42 112.50 27 -1 -12.59 111.78 20 -13.42 112.50 TC 27 4 100
1996 SI WA 12:00:00 TS -13.17 112.47 534 518 O_____P_____O_ jtwc_sh SH021996 -13.40 112.70 30 -1 -12.70 112.00 20 -13.40 112.70 TC 30 4 88
1996 SI WA 15:00:00 TS -13.13 112.68 518 513 P_____P_____P_ SH021996 -13.30 112.91 27 -1 -12.79 112.22 20 -13.30 112.91 TC 27 4 80
1996 SI WA 18:00:00 TS -13.09 112.88 513 508 O_____P_____O_ jtwc_sh SH021996 -13.20 113.10 25 -1 -12.87 112.45 20 -13.20 113.10 TC 25 4 86
1996 SI WA 21:00:00 TS -13.10 113.07 508 505 P_____P_____P_ SH021996 -13.18 113.26 25 -1 -12.94 112.68 20 -13.18 113.26 TC 25 3 96
1996 SI WA 1995-12-15 00:00:00 TS -13.13 113.24 505 502 O_____P_____O_ jtwc_sh SH021996 -13.20 113.40 25 -1 -12.99 112.92 20 -13.20 113.40 TC 25 3 96
1996 SI WA 01:00:00 TS -13.12 113.26 20 1005 bom 502 502 P_____O_____P_ SH021996 -13.20 113.44 25 -1 -13.00 113.00 20 20 1005 1.00 134 3 5 -13.20 113.44 TC 25 2 78
1996 SI WA 03:00:00 TS -13.11 113.34 502 496 P_____P_____P_ SH021996 -13.21 113.51 25 -1 -13.01 113.16 20 20 1005 134 -13.21 113.51 TC 25 3 78
1996 SI WA 06:00:00 TS -13.08 113.47 496 480 O_____P_____O_ jtwc_sh SH021996 -13.20 113.60 25 -1 -13.02 113.41 20 20 1005 134 -13.20 113.60 TC 25 3 73
1996 SI WA 09:00:00 NR -13.01 113.66 480 476 ______P_______ SH021996 -1 -13.01 113.66 20 20 1005 134 TC 4 80
1996 SI WA 12:00:00 NR -13.00 113.92 476 474 ______P_______ -1 -13.00 113.92 20 20 1005 134 5 88
1996 SI WA 13:00:00 NR -13.00 114.00 20 1005 bom 474 472 ______O_______ -1 -13.00 114.00 20 20 1005 1.00 134 3 5 5 89
1996 SI WA 15:00:00 NR -13.00 114.19 472 470 ______P_______ -1 -13.00 114.19 20 20 1005 134 6 90
1996 SI WA 18:00:00 NR -13.00 114.48 470 470 ______P_______ -1 -13.00 114.48 20 20 1005 134 5 90
1996 SI WA 21:00:00 NR -13.00 114.74 470 470 ______P_______ -1 -13.00 114.74 20 20 1005 134 5 90
1996 SI WA 1995-12-16 00:00:00 NR -13.00 114.95 470 470 ______P_______ -1 -13.00 114.95 20 20 1005 134 4 90
1996 SI WA 01:00:00 NR -13.00 115.00 20 1005 bom 470 469 ______O_______ -1 -13.00 115.00 20 20 1005 1.00 134 3 5 3 90
1996 SI WA 03:00:00 NR -13.00 115.08 469 469 ______P_______ -1 -13.00 115.08 20 2 90
1996 SI WA 06:00:00 NR -13.00 115.14 469 469 ______P_______ -1 -13.00 115.14 20 1 90
1996 SI WA 09:00:00 NR -13.00 115.13 469 469 ______P_______ -1 -13.00 115.13 20 0 270
1996 SI WA 12:00:00 NR -13.00 115.09 469 469 ______P_______ -1 -13.00 115.09 20 1 270
1996 SI WA 15:00:00 NR -13.00 115.02 470 470 ______P_______ -1 -13.00 115.02 20 1 270
1996 SI WA 16:00:00 NR -13.00 115.00 20 1005 bom 470 ______O_______ -1 -13.00 115.00 20 20 1005 1.00 134 3 5 1 0